Time;durP1;ratioP1;P1;durP2;ratioP2;P2;SDS_P1;SDS_P2;PMS_P1;PMS_P2;Temp;Humidity;BMP_temperature;BMP_pressure;BME280_temperature;BME280_humidity;BME280_pressure;Samples;Min_cycle;Max_cycle;Signal;HPM_P1;HPM_P2
2021/03/13 00:00:06;;;;;;;;;;;;;;;9.46;43.91;98976.38;4842349;29;20016;-77
2021/03/13 00:02:38;;;;;;;;;;;;;;;9.42;44.21;98975.66;4844217;29;19970;-75
2021/03/13 00:05:06;;;;;;;;;;;;;;;9.42;44.75;98978.31;4839204;29;19960;-75
2021/03/13 00:07:33;;;;;;;;;;;;;;;9.36;44.88;98969.84;4844732;29;19939;-75
2021/03/13 00:10:00;;;;;;;;;;;;;;;9.32;45.82;98970.94;4840012;29;19960;-76
2021/03/13 00:12:29;;;;;;;;;;;;;;;9.29;45.85;98974.59;4842324;29;20028;-75
2021/03/13 00:14:56;;;;;;;;;;;;;;;9.27;46.61;98971.16;4845529;29;19999;-75
2021/03/13 00:17:23;;;;;;;;;;;;;;;9.24;47.06;98968.69;4832534;29;19932;-76
2021/03/13 00:19:50;;;;;;;;;;;;;;;9.23;46.80;98962.56;4841855;29;19936;-76
2021/03/13 00:22:17;;;;;;;;;;;;;;;9.22;46.66;98959.97;4841418;29;19991;-75
2021/03/13 00:24:44;;;;;;;;;;;;;;;9.19;47.25;98962.78;4842073;29;19933;-75
2021/03/13 00:27:11;;;;;;;;;;;;;;;9.17;47.60;98960.22;4857191;29;19936;-75
2021/03/13 00:29:39;;;;;;;;;;;;;;;9.16;47.55;98958.50;4840977;29;20673;-75
2021/03/13 00:32:06;;;;;;;;;;;;;;;9.13;48.53;98951.59;4833132;29;19929;-75
2021/03/13 00:34:33;;;;;;;;;;;;;;;9.13;48.12;98948.13;4855203;29;20000;-75
2021/03/13 00:37:01;;;;;;;;;;;;;;;9.13;48.21;98948.13;4847773;29;20366;-76
2021/03/13 00:39:41;;;;;;;;;;;;;;;9.10;47.85;98943.84;4840670;29;20041;-76
2021/03/13 00:42:09;;;;;;;;;;;;;;;9.07;48.44;98943.97;4843072;29;19933;-75
2021/03/13 00:44:36;;;;;;;;;;;;;;;9.06;48.17;98944.94;4836845;29;19958;-75
2021/03/13 00:47:04;;;;;;;;;;;;;;;9.04;49.15;98941.50;4841313;29;19932;-75
2021/03/13 00:49:32;;;;;;;;;;;;;;;9.04;48.96;98948.59;4847376;29;19932;-75
2021/03/13 00:52:00;;;;;;;;;;;;;;;9.02;49.35;98945.16;4842986;29;19935;-75
2021/03/13 00:54:28;;;;;;;;;;;;;;;8.99;49.66;98932.13;4844681;29;20044;-75
2021/03/13 00:56:55;;;;;;;;;;;;;;;8.97;49.56;98932.22;4843202;29;19960;-75
2021/03/13 00:59:22;;;;;;;;;;;;;;;8.97;50.11;98934.84;4839669;29;19939;-76
2021/03/13 01:01:49;;;;;;;;;;;;;;;8.95;50.11;98934.06;4835874;29;19948;-75
2021/03/13 01:04:17;;;;;;;;;;;;;;;8.94;49.71;98942.91;4854938;29;19954;-75
2021/03/13 01:06:44;;;;;;;;;;;;;;;8.92;49.89;98936.84;4840991;29;20028;-75
2021/03/13 01:09:11;;;;;;;;;;;;;;;8.90;49.95;98943.97;4848290;29;19929;-75
2021/03/13 01:11:39;;;;;;;;;;;;;;;8.88;50.13;98937.94;4839681;29;19952;-75
2021/03/13 01:14:09;;;;;;;;;;;;;;;8.86;50.02;98931.88;4836543;29;19928;-76
2021/03/13 01:16:42;;;;;;;;;;;;;;;8.87;50.85;98930.97;4842373;29;19962;-75
2021/03/13 01:19:09;;;;;;;;;;;;;;;8.83;50.71;98924.97;4857311;29;19937;-75
2021/03/13 01:21:38;;;;;;;;;;;;;;;8.83;51.11;98929.41;4842924;29;20396;-76
2021/03/13 01:24:08;;;;;;;;;;;;;;;8.82;50.70;98923.25;4843115;29;19937;-75
2021/03/13 01:26:38;;;;;;;;;;;;;;;8.96;49.59;98915.50;4847688;29;19935;-75
2021/03/13 01:29:08;;;;;;;;;;;;;;;9.09;48.20;98907.00;4840998;29;19928;-75
2021/03/13 01:31:49;;;;;;;;;;;;;;;9.08;48.42;98906.13;4842474;29;20046;-75
2021/03/13 01:34:23;;;;;;;;;;;;;;;9.07;48.55;98907.06;4845050;29;19958;-75
2021/03/13 01:37:01;;;;;;;;;;;;;;;9.07;49.27;98909.69;4840846;29;19939;-74
2021/03/13 01:39:31;;;;;;;;;;;;;;;9.11;48.67;98913.03;4855391;29;19937;-75
2021/03/13 01:41:58;;;;;;;;;;;;;;;9.19;47.78;98905.56;4850164;29;20000;-75
2021/03/13 01:44:25;;;;;;;;;;;;;;;9.23;46.60;98904.50;4844341;29;19932;-76
2021/03/13 01:46:52;;;;;;;;;;;;;;;9.30;45.78;98928.81;4847646;29;19936;-76
2021/03/13 01:49:23;;;;;;;;;;;;;;;9.39;44.64;98941.53;4843548;29;19967;-76
2021/03/13 01:51:51;;;;;;;;;;;;;;;9.42;44.22;98935.22;4856942;29;19929;-76
2021/03/13 01:54:19;;;;;;;;;;;;;;;9.45;42.82;98932.41;4843308;29;19929;-75
2021/03/13 01:56:48;;;;;;;;;;;;;;;9.44;42.74;98930.72;4821849;29;19936;-75
2021/03/13 01:59:16;;;;;;;;;;;;;;;9.45;42.60;98937.69;4833292;29;19932;-76
2021/03/13 02:01:47;;;;;;;;;;;;;;;9.42;42.39;98937.88;4843667;29;19944;-75
2021/03/13 02:04:20;;;;;;;;;;;;;;;9.41;42.07;98937.00;4843432;29;19933;-76
2021/03/13 02:06:54;;;;;;;;;;;;;;;9.46;41.72;98939.41;4860472;29;19997;-75
2021/03/13 02:09:27;;;;;;;;;;;;;;;9.45;41.16;98946.47;4854211;29;19932;-75
2021/03/13 02:11:59;;;;;;;;;;;;;;;9.43;41.52;98942.22;4844666;29;19967;-76
2021/03/13 02:14:35;;;;;;;;;;;;;;;9.41;41.20;98934.34;4844306;29;19937;-76
2021/03/13 02:17:13;;;;;;;;;;;;;;;9.27;41.27;98945.63;4842642;29;19932;-75
2021/03/13 02:19:51;;;;;;;;;;;;;;;9.11;42.64;98952.59;4840997;29;19936;-75
2021/03/13 02:22:20;;;;;;;;;;;;;;;8.96;43.49;98954.22;4855881;29;19961;-75
2021/03/13 02:24:59;;;;;;;;;;;;;;;8.87;43.50;98955.53;4837799;29;19944;-75
2021/03/13 02:27:28;;;;;;;;;;;;;;;8.78;44.25;98964.72;4861266;29;20370;-75
2021/03/13 02:30:08;;;;;;;;;;;;;;;8.71;45.37;98963.34;4846190;29;19936;-75
2021/03/13 02:32:44;;;;;;;;;;;;;;;8.66;45.62;98972.41;4857937;29;20425;-75
2021/03/13 02:35:14;;;;;;;;;;;;;;;8.61;45.92;98975.25;4856523;29;19944;-74
2021/03/13 02:37:48;;;;;;;;;;;;;;;8.58;46.12;98980.66;4847869;29;19935;-75
2021/03/13 02:40:19;;;;;;;;;;;;;;;8.54;46.44;98976.47;4839694;29;19929;-75
2021/03/13 02:42:51;;;;;;;;;;;;;;;8.51;46.74;98980.09;4840746;29;19945;-75
2021/03/13 02:45:20;;;;;;;;;;;;;;;8.48;46.82;98977.59;4845564;29;19993;-75
2021/03/13 02:47:48;;;;;;;;;;;;;;;8.43;46.95;98977.81;4859371;29;19999;-75
2021/03/13 02:50:16;;;;;;;;;;;;;;;8.42;47.52;98991.91;4841636;29;19929;-75
2021/03/13 02:52:56;;;;;;;;;;;;;;;8.38;47.74;98995.59;4841659;29;19941;-74
2021/03/13 02:55:28;;;;;;;;;;;;;;;8.36;48.23;98996.59;4844691;29;19939;-74
2021/03/13 02:57:57;;;;;;;;;;;;;;;8.33;48.10;98999.38;4860360;29;19932;-75
2021/03/13 03:00:27;;;;;;;;;;;;;;;8.30;48.33;99005.66;4838346;29;19932;-75
2021/03/13 03:02:58;;;;;;;;;;;;;;;8.28;48.41;99012.75;4847300;29;19957;-75
2021/03/13 03:05:42;;;;;;;;;;;;;;;8.26;49.00;99014.59;4836522;29;20005;-75
2021/03/13 03:08:09;;;;;;;;;;;;;;;8.26;48.75;99011.94;4839150;29;19929;-75
2021/03/13 03:10:40;;;;;;;;;;;;;;;8.23;49.13;99012.09;4857371;29;19944;-75
2021/03/13 03:13:09;;;;;;;;;;;;;;;8.21;49.00;99013.94;4858765;29;19942;-74
2021/03/13 03:15:37;;;;;;;;;;;;;;;8.19;49.59;99021.06;4846097;29;19953;-74
2021/03/13 03:18:06;;;;;;;;;;;;;;;8.16;49.42;99026.50;4841730;29;19971;-74
2021/03/13 03:20:34;;;;;;;;;;;;;;;8.13;49.23;99028.31;4858150;29;20371;-75
2021/03/13 03:23:02;;;;;;;;;;;;;;;8.12;49.63;99031.88;4857025;29;19964;-75
2021/03/13 03:25:30;;;;;;;;;;;;;;;8.11;49.73;99039.84;4842383;29;20329;-75
2021/03/13 03:27:58;;;;;;;;;;;;;;;8.08;49.88;99037.38;4830213;29;19934;-75
2021/03/13 03:30:35;;;;;;;;;;;;;;;8.07;50.13;99044.41;4843586;29;19928;-75
2021/03/13 03:33:05;;;;;;;;;;;;;;;8.03;49.70;99049.88;4842189;29;19952;-75
2021/03/13 03:35:36;;;;;;;;;;;;;;;8.00;50.57;99045.59;4850362;29;19960;-75
2021/03/13 03:38:04;;;;;;;;;;;;;;;7.96;50.58;99039.59;4841531;29;20544;-75
2021/03/13 03:40:33;;;;;;;;;;;;;;;7.96;50.74;99059.81;4844138;29;19945;-75
2021/03/13 03:43:03;;;;;;;;;;;;;;;7.94;50.36;99065.13;4856704;29;19933;-74
2021/03/13 03:46:00;;;;;;;;;;;;;;;7.92;50.48;99059.09;4843742;29;19957;-75
2021/03/13 03:48:30;;;;;;;;;;;;;;;7.91;50.91;99059.16;4839327;29;20271;-75
2021/03/13 03:51:09;;;;;;;;;;;;;;;7.89;50.93;99069.78;4853320;29;19928;-75
2021/03/13 03:53:43;;;;;;;;;;;;;;;7.87;51.02;99068.13;4855339;29;19933;-75
2021/03/13 03:56:11;;;;;;;;;;;;;;;7.84;50.97;99077.00;4855768;29;19953;-75
2021/03/13 03:58:41;;;;;;;;;;;;;;;7.80;50.89;99078.91;4848883;29;19932;-75
2021/03/13 04:01:09;;;;;;;;;;;;;;;7.79;50.96;99079.81;4850142;29;20966;-75
2021/03/13 04:03:43;;;;;;;;;;;;;;;7.87;50.59;99076.88;4850923;29;19932;-75
2021/03/13 04:06:12;;;;;;;;;;;;;;;8.00;49.04;99071.06;4853012;29;20402;-75
2021/03/13 04:08:39;;;;;;;;;;;;;;;8.11;47.93;99074.94;4855569;29;19976;-75
2021/03/13 04:11:07;;;;;;;;;;;;;;;8.16;46.69;99077.38;4844009;29;19929;-74
2021/03/13 04:13:36;;;;;;;;;;;;;;;8.20;45.59;99076.31;4843862;29;20711;-75
2021/03/13 04:16:04;;;;;;;;;;;;;;;8.25;44.74;99073.50;4839810;29;19928;-75
2021/03/13 04:18:31;;;;;;;;;;;;;;;8.22;44.51;99074.47;4842148;29;19929;-75
2021/03/13 04:21:00;;;;;;;;;;;;;;;8.20;45.79;99075.47;4845285;29;20069;-75
2021/03/13 04:23:27;;;;;;;;;;;;;;;8.19;46.75;99081.66;4844143;29;19960;-75
2021/03/13 04:25:55;;;;;;;;;;;;;;;8.18;46.93;99075.56;4844404;29;19939;-74
2021/03/13 04:28:23;;;;;;;;;;;;;;;8.25;46.09;99082.25;4837569;29;19937;-74
2021/03/13 04:30:50;;;;;;;;;;;;;;;8.28;45.02;99084.72;4838247;29;19932;-74
2021/03/13 04:33:17;;;;;;;;;;;;;;;8.34;44.34;99077.47;4846588;29;20047;-74
2021/03/13 04:35:46;;;;;;;;;;;;;;;8.38;43.09;99076.41;4840505;29;19944;-74
2021/03/13 04:38:16;;;;;;;;;;;;;;;8.46;42.96;99082.25;4846283;29;19928;-74
2021/03/13 04:40:43;;;;;;;;;;;;;;;8.45;42.23;99080.50;4856141;29;19979;-74
2021/03/13 04:43:11;;;;;;;;;;;;;;;8.50;42.10;99077.66;4855659;29;19996;-74
2021/03/13 04:45:38;;;;;;;;;;;;;;;8.53;41.90;99075.75;4819823;29;19933;-75
2021/03/13 04:48:06;;;;;;;;;;;;;;;8.52;41.26;99068.78;4833004;29;19929;-74
2021/03/13 04:50:33;;;;;;;;;;;;;;;8.54;41.40;99077.47;4826455;29;19935;-74
2021/03/13 04:53:00;;;;;;;;;;;;;;;8.56;40.88;99065.09;4841590;29;19935;-74
2021/03/13 04:55:28;;;;;;;;;;;;;;;8.53;40.46;99056.47;4827782;29;20398;-74
2021/03/13 04:57:55;;;;;;;;;;;;;;;8.37;41.12;99066.81;4837962;29;19961;-74
2021/03/13 05:00:23;;;;;;;;;;;;;;;8.24;41.84;99066.50;4832833;29;19974;-74
2021/03/13 05:02:50;;;;;;;;;;;;;;;8.16;42.37;99068.63;4845826;29;19972;-74
2021/03/13 05:05:18;;;;;;;;;;;;;;;8.08;43.55;99063.69;4838908;29;19935;-74
2021/03/13 05:07:45;;;;;;;;;;;;;;;8.03;43.60;99071.78;4843754;29;19967;-74
2021/03/13 05:10:12;;;;;;;;;;;;;;;7.98;43.99;99072.00;4840946;29;19941;-74
2021/03/13 05:12:40;;;;;;;;;;;;;;;7.94;44.65;99077.47;4842808;29;19935;-74
2021/03/13 05:15:08;;;;;;;;;;;;;;;7.93;44.64;99062.56;4824153;29;19929;-74
2021/03/13 05:17:35;;;;;;;;;;;;;;;7.90;45.37;99071.47;4844120;29;19933;-74
2021/03/13 05:20:03;;;;;;;;;;;;;;;7.88;46.00;99073.31;4830267;29;19928;-75
2021/03/13 05:22:30;;;;;;;;;;;;;;;7.87;46.00;99079.50;4846515;29;19958;-74
2021/03/13 05:24:57;;;;;;;;;;;;;;;7.85;46.39;99083.97;4847601;29;19936;-74
2021/03/13 05:27:24;;;;;;;;;;;;;;;7.82;46.94;99071.78;4820444;29;19939;-75
2021/03/13 05:29:52;;;;;;;;;;;;;;;7.82;46.78;99069.16;4848466;29;20056;-75
2021/03/13 05:32:19;;;;;;;;;;;;;;;7.81;47.08;99078.00;4826180;29;19942;-74
2021/03/13 05:34:46;;;;;;;;;;;;;;;7.79;47.39;99066.66;4846414;29;19929;-74
2021/03/13 05:37:13;;;;;;;;;;;;;;;7.78;47.58;99075.47;4849069;29;19964;-74
2021/03/13 05:39:40;;;;;;;;;;;;;;;7.77;47.50;99067.66;4839074;29;19932;-74
2021/03/13 05:42:09;;;;;;;;;;;;;;;7.76;47.54;99072.06;4843599;29;19943;-75
2021/03/13 05:44:38;;;;;;;;;;;;;;;7.76;48.14;99072.06;4844478;29;19943;-75
2021/03/13 05:47:05;;;;;;;;;;;;;;;7.76;48.08;99068.56;4849259;29;19954;-74
2021/03/13 05:49:33;;;;;;;;;;;;;;;7.75;48.14;99072.97;4862458;29;19936;-75
2021/03/13 05:52:01;;;;;;;;;;;;;;;7.76;48.36;99068.56;4840519;29;19933;-75
2021/03/13 05:54:28;;;;;;;;;;;;;;;7.76;48.38;99068.56;4840618;29;19932;-75
2021/03/13 05:56:58;;;;;;;;;;;;;;;7.76;48.81;99065.94;4845129;29;19932;-75
2021/03/13 05:59:25;;;;;;;;;;;;;;;7.77;48.84;99063.25;4845055;29;19958;-74
2021/03/13 06:01:52;;;;;;;;;;;;;;;7.78;48.81;99070.22;4844722;29;19962;-75
2021/03/13 06:04:25;;;;;;;;;;;;;;;7.77;48.66;99071.16;4842421;29;19937;-75
2021/03/13 06:06:53;;;;;;;;;;;;;;;7.81;49.13;99069.22;4826015;29;19939;-74
2021/03/13 06:09:20;;;;;;;;;;;;;;;7.82;49.12;99066.53;4837428;29;19993;-74
2021/03/13 06:11:46;;;;;;;;;;;;;;;7.82;49.28;99071.78;4842085;29;19939;-73
2021/03/13 06:14:14;;;;;;;;;;;;;;;7.86;49.04;99067.25;4843487;29;19933;-74
2021/03/13 06:16:41;;;;;;;;;;;;;;;7.92;49.15;99069.63;4840124;29;19970;-73
2021/03/13 06:19:09;;;;;;;;;;;;;;;7.95;48.93;99061.59;4822054;29;19948;-74
2021/03/13 06:21:37;;;;;;;;;;;;;;;7.96;49.46;99060.66;4832335;29;20454;-73
2021/03/13 06:24:13;;;;;;;;;;;;;;;7.97;49.56;99061.50;4840151;29;19937;-74
2021/03/13 06:26:49;;;;;;;;;;;;;;;8.00;49.29;99052.63;4840381;29;19962;-74
2021/03/13 06:29:16;;;;;;;;;;;;;;;7.97;49.42;99065.03;4836021;29;19932;-73
2021/03/13 06:31:43;;;;;;;;;;;;;;;7.95;49.62;99066.00;4839756;29;19937;-73
2021/03/13 06:34:24;;;;;;;;;;;;;;;7.97;49.88;99061.50;4836328;29;19932;-74
2021/03/13 06:37:14;;;;;;;;;;;;;;;7.97;49.58;99062.38;4840982;29;20405;-74
2021/03/13 06:39:41;;;;;;;;;;;;;;;8.03;49.63;99070.94;4844684;29;19966;-74
2021/03/13 06:42:18;;;;;;;;;;;;;;;8.02;49.88;99070.06;4846019;29;19989;-74
2021/03/13 06:44:52;;;;;;;;;;;;;;;8.21;48.51;99070.13;4853081;29;19973;-74
2021/03/13 06:47:28;;;;;;;;;;;;;;;8.41;47.28;99057.84;4844501;29;19936;-74
2021/03/13 06:50:07;;;;;;;;;;;;;;;8.53;46.00;99059.94;4836580;29;19956;-75
2021/03/13 06:52:35;;;;;;;;;;;;;;;8.62;44.64;99059.50;4845686;29;19936;-75
2021/03/13 06:55:01;;;;;;;;;;;;;;;8.69;43.96;99064.50;4838777;29;19936;-74
2021/03/13 06:57:28;;;;;;;;;;;;;;;8.71;43.54;99058.25;4840076;29;20485;-74
2021/03/13 06:59:57;;;;;;;;;;;;;;;8.79;42.88;99055.25;4838469;29;19943;-75
2021/03/13 07:02:24;;;;;;;;;;;;;;;8.89;41.84;99056.53;4833387;29;20368;-73
2021/03/13 07:05:06;;;;;;;;;;;;;;;8.98;41.46;99044.66;4852821;29;19936;-74
2021/03/13 07:07:34;;;;;;;;;;;;;;;8.94;42.41;99053.66;4855328;29;19992;-74
2021/03/13 07:10:04;;;;;;;;;;;;;;;8.87;43.38;99046.97;4855868;29;19995;-74
2021/03/13 07:12:34;;;;;;;;;;;;;;;8.82;44.45;99051.63;4835195;29;20472;-75
2021/03/13 07:15:17;;;;;;;;;;;;;;;8.91;44.12;99045.91;4840900;29;20313;-73
2021/03/13 07:17:48;;;;;;;;;;;;;;;9.05;43.08;99051.38;4840726;29;20074;-76
2021/03/13 07:20:17;;;;;;;;;;;;;;;9.16;42.66;99056.13;4840596;29;19929;-78
2021/03/13 07:34:41;;;;;;;;;;;;;;;9.53;39.25;99040.25;4858925;29;20372;-76
2021/03/13 07:37:16;;;;;;;;;;;;;;;9.57;38.95;99041.81;4846050;29;20386;-77
2021/03/13 07:39:46;;;;;;;;;;;;;;;9.61;39.31;99046.88;4842291;29;19928;-76
2021/03/13 07:42:19;;;;;;;;;;;;;;;9.48;40.54;99053.66;4841569;29;20375;-76
2021/03/13 07:44:49;;;;;;;;;;;;;;;9.43;41.05;99050.44;4842532;29;20375;-76
2021/03/13 07:47:19;;;;;;;;;;;;;;;9.45;41.64;99038.84;4841595;29;20410;-76
2021/03/13 07:49:51;;;;;;;;;;;;;;;9.38;42.16;99050.66;4841784;29;20375;-76
2021/03/13 07:52:21;;;;;;;;;;;;;;;9.30;42.67;99051.03;4842516;29;20410;-77
2021/03/13 07:54:53;;;;;;;;;;;;;;;9.16;43.14;99053.47;4842346;29;20313;-76
2021/03/13 07:57:22;;;;;;;;;;;;;;;9.14;44.02;99060.63;4842280;29;19951;-79
2021/03/13 07:59:54;;;;;;;;;;;;;;;9.18;44.50;99048.13;4841966;29;20398;-75
2021/03/13 08:06:07;;;;;;;;;;;;;;;9.22;44.42;99054.97;4842058;29;20404;-79
2021/03/13 08:13:02;;;;;;;;;;;;;;;9.28;44.79;99046.75;4785779;30;20341;-76
2021/03/13 08:15:46;;;;;;;;;;;;;;;9.39;45.07;99048.84;4785309;30;20547;-78
2021/03/13 08:18:32;;;;;;;;;;;;;;;9.47;44.49;99050.19;4785367;30;20467;-75
2021/03/13 08:21:40;;;;;;;;;;;;;;;9.66;44.70;99033.41;4780288;30;20392;-76
2021/03/13 08:24:13;;;;;;;;;;;;;;;9.83;44.57;99034.34;4785526;30;20405;-77
2021/03/13 08:27:01;;;;;;;;;;;;;;;10.05;44.42;99015.59;4785477;30;19968;-74
2021/03/13 08:29:49;;;;;;;;;;;;;;;10.52;42.62;99012.22;4784593;30;20026;-74
2021/03/13 08:32:34;;;;;;;;;;;;;;;11.06;42.14;99014.50;4792571;29;20039;-75
2021/03/13 08:35:07;;;;;;;;;;;;;;;11.08;41.69;99017.94;4841256;29;20387;-74
2021/03/13 08:37:48;;;;;;;;;;;;;;;11.12;41.93;99014.16;4841445;29;20400;-74
2021/03/13 08:40:27;;;;;;;;;;;;;;;11.73;40.86;99015.97;4841267;29;20406;-74
2021/03/13 08:46:44;;;;;;;;;;;;;;;11.16;42.82;99011.31;4841470;29;20438;-76
2021/03/13 08:49:36;;;;;;;;;;;;;;;10.93;43.38;99005.56;4826472;29;20363;-74
2021/03/13 08:52:21;;;;;;;;;;;;;;;10.79;43.78;99007.19;4841471;29;20410;-73
2021/03/13 08:54:51;;;;;;;;;;;;;;;10.66;44.20;99006.16;4828975;29;19929;-73
2021/03/13 08:57:42;;;;;;;;;;;;;;;10.75;44.47;99002.16;4828641;29;19932;-73
2021/03/13 09:00:17;;;;;;;;;;;;;;;11.05;43.73;98991.63;4845117;29;20356;-73
2021/03/13 09:02:50;;;;;;;;;;;;;;;11.34;42.96;98975.84;4844918;29;19928;-73
2021/03/13 09:05:21;;;;;;;;;;;;;;;12.33;40.81;98971.69;4844869;29;19963;-73
2021/03/13 09:07:52;;;;;;;;;;;;;;;12.79;39.82;98960.78;4845002;29;19929;-74
2021/03/13 09:10:24;;;;;;;;;;;;;;;12.57;40.50;98959.53;4844444;29;19940;-73
2021/03/13 09:17:00;;;;;;;;;;;;;;;13.13;39.55;98953.25;4845222;29;20346;-74
2021/03/13 09:19:33;;;;;;;;;;;;;;;12.89;40.45;98947.78;4844420;29;19928;-75
2021/03/13 09:22:07;;;;;;;;;;;;;;;12.77;40.60;98957.41;4844472;29;19950;-74
2021/03/13 09:24:38;;;;;;;;;;;;;;;12.41;41.57;98959.66;4844250;29;19940;-74
2021/03/13 09:27:09;;;;;;;;;;;;;;;12.33;42.16;98947.84;4827443;29;20275;-75
2021/03/13 09:29:40;;;;;;;;;;;;;;;12.12;42.47;98949.09;4844733;29;20331;-73
2021/03/13 09:32:10;;;;;;;;;;;;;;;11.95;43.25;98944.84;4827710;29;19928;-73
2021/03/13 09:34:43;;;;;;;;;;;;;;;11.95;43.52;98936.91;4843984;29;19928;-73
2021/03/13 09:37:16;;;;;;;;;;;;;;;11.87;43.40;98938.28;4844171;29;19936;-73
2021/03/13 09:39:46;;;;;;;;;;;;;;;11.74;43.89;98933.75;4843923;29;19932;-73
2021/03/13 09:42:18;;;;;;;;;;;;;;;11.59;44.33;98938.16;4844152;29;20026;-74
2021/03/13 09:44:48;;;;;;;;;;;;;;;11.78;44.09;98939.72;4844711;29;20382;-72
2021/03/13 09:47:25;;;;;;;;;;;;;;;11.68;43.89;98928.81;4844360;29;20398;-73
2021/03/13 09:49:57;;;;;;;;;;;;;;;11.72;42.74;98930.31;4843866;29;20267;-74
2021/03/13 09:52:30;;;;;;;;;;;;;;;12.05;41.21;98923.91;4843589;29;20429;-73
2021/03/13 09:55:06;;;;;;;;;;;;;;;12.47;39.34;98913.34;4843792;29;20418;-73
2021/03/13 09:57:36;;;;;;;;;;;;;;;12.78;38.01;98900.75;4844162;29;19928;-73
2021/03/13 10:00:08;;;;;;;;;;;;;;;13.05;36.83;98897.19;4844253;29;20378;-73
2021/03/13 10:02:38;;;;;;;;;;;;;;;13.66;35.16;98896.63;4843838;29;20016;-73
2021/03/13 10:05:14;;;;;;;;;;;;;;;13.74;34.71;98899.63;4842518;29;20409;-74
2021/03/13 10:07:45;;;;;;;;;;;;;;;14.60;32.92;98896.13;4843405;29;20306;-73
2021/03/13 10:14:22;;;;;;;;;;;;;;;14.85;32.28;98897.00;4894862;24;19943;-73
2021/03/13 10:16:58;;;;;;;;;;;;;;;14.72;33.06;98885.53;4835368;29;19936;-74
2021/03/13 10:19:35;;;;;;;;;;;;;;;14.58;34.24;98883.88;4847307;29;19940;-74
2021/03/13 10:22:07;;;;;;;;;;;;;;;14.71;34.30;98883.88;4845763;29;19932;-75
2021/03/13 10:24:44;;;;;;;;;;;;;;;14.54;35.20;98875.28;4856839;29;19947;-73
2021/03/13 10:27:11;;;;;;;;;;;;;;;14.53;35.60;98870.91;4851259;29;20000;-74
2021/03/13 10:29:39;;;;;;;;;;;;;;;14.81;35.53;98868.88;4857764;29;19938;-74
2021/03/13 10:32:06;;;;;;;;;;;;;;;14.91;35.33;98867.22;4855477;29;19936;-73
2021/03/13 10:34:34;;;;;;;;;;;;;;;14.82;35.73;98859.09;4847558;29;19954;-72
2021/03/13 10:37:01;;;;;;;;;;;;;;;14.90;35.63;98848.72;4852985;29;20036;-72
2021/03/13 10:39:29;;;;;;;;;;;;;;;14.84;36.19;98852.72;4853628;29;19963;-72
2021/03/13 10:41:59;;;;;;;;;;;;;;;15.07;35.85;98834.97;4837636;29;20004;-71
2021/03/13 10:44:26;;;;;;;;;;;;;;;15.08;36.28;98830.50;4852348;29;19959;-73
2021/03/13 10:46:53;;;;;;;;;;;;;;;15.24;35.98;98827.50;4845463;29;19932;-71
2021/03/13 10:49:25;;;;;;;;;;;;;;;15.38;35.94;98819.28;4851792;29;19995;-74
2021/03/13 10:51:53;;;;;;;;;;;;;;;15.35;36.17;98819.53;4855493;29;19932;-71
2021/03/13 10:54:21;;;;;;;;;;;;;;;14.99;37.12;98808.09;4853725;29;19936;-72
2021/03/13 10:56:50;;;;;;;;;;;;;;;14.90;37.54;98801.63;4850247;29;19956;-71
2021/03/13 10:59:17;;;;;;;;;;;;;;;14.63;38.12;98798.38;4853114;29;19928;-71
2021/03/13 11:01:45;;;;;;;;;;;;;;;14.46;38.88;98792.53;4851881;29;19986;-74
2021/03/13 11:04:12;;;;;;;;;;;;;;;14.58;38.83;98772.13;4850268;29;19932;-73
2021/03/13 11:06:40;;;;;;;;;;;;;;;14.42;39.00;98783.09;4842548;29;19953;-74
2021/03/13 11:09:08;;;;;;;;;;;;;;;14.40;39.38;98767.22;4846576;29;19971;-74
2021/03/13 11:11:35;;;;;;;;;;;;;;;14.38;39.37;98765.63;4853511;29;19932;-74
2021/03/13 11:14:06;;;;;;;;;;;;;;;14.48;39.20;98761.31;4840640;29;20159;-74
2021/03/13 11:16:33;;;;;;;;;;;;;;;14.45;39.59;98751.75;4854764;29;19967;-74
2021/03/13 11:19:03;;;;;;;;;;;;;;;14.50;39.42;98751.44;4841002;29;19953;-74
2021/03/13 11:21:35;;;;;;;;;;;;;;;14.64;39.22;98745.06;4857241;29;21761;-73
2021/03/13 11:24:03;;;;;;;;;;;;;;;14.69;39.24;98736.75;4856829;29;19935;-73
2021/03/13 11:26:30;;;;;;;;;;;;;;;14.85;38.91;98750.59;4856911;29;19928;-74
2021/03/13 11:28:57;;;;;;;;;;;;;;;14.57;39.40;98728.69;4855971;29;19959;-74
2021/03/13 11:31:25;;;;;;;;;;;;;;;14.59;39.71;98732.09;4841889;29;19939;-74
2021/03/13 11:33:52;;;;;;;;;;;;;;;14.39;40.12;98727.44;4843232;29;19963;-73
2021/03/13 11:36:19;;;;;;;;;;;;;;;14.19;40.87;98735.09;4855304;29;19952;-73
2021/03/13 11:38:46;;;;;;;;;;;;;;;14.20;40.75;98728.81;4850593;29;19943;-73
2021/03/13 11:41:13;;;;;;;;;;;;;;;14.22;40.79;98724.25;4854522;29;19939;-74
2021/03/13 11:43:42;;;;;;;;;;;;;;;14.41;40.39;98718.38;4851424;29;20777;-73
2021/03/13 11:46:10;;;;;;;;;;;;;;;14.57;40.26;98715.41;4851768;29;20746;-73
2021/03/13 11:48:38;;;;;;;;;;;;;;;14.74;39.80;98710.63;4855172;29;19936;-74
2021/03/13 11:51:05;;;;;;;;;;;;;;;14.65;40.09;98708.69;4852088;29;20018;-74
2021/03/13 11:53:33;;;;;;;;;;;;;;;14.47;40.87;98708.25;4852206;29;19939;-73
2021/03/13 11:55:59;;;;;;;;;;;;;;;14.37;40.86;98700.13;4855551;29;19934;-73
2021/03/13 11:58:26;;;;;;;;;;;;;;;14.21;41.15;98697.75;4854342;29;19928;-74
2021/03/13 12:01:13;;;;;;;;;;;;;;;14.11;41.70;98690.47;4853040;29;19939;-73
2021/03/13 12:03:42;;;;;;;;;;;;;;;13.93;41.99;98687.38;4845935;29;20304;-73
2021/03/13 12:06:09;;;;;;;;;;;;;;;13.79;42.62;98687.56;4856869;29;19953;-74
2021/03/13 12:08:56;;;;;;;;;;;;;;;13.52;43.26;98670.00;4855117;29;19937;-74
2021/03/13 12:11:23;;;;;;;;;;;;;;;13.34;43.88;98666.81;4848473;29;19942;-74
2021/03/13 12:13:50;;;;;;;;;;;;;;;13.25;43.94;98662.19;4853022;29;19939;-73
2021/03/13 12:16:17;;;;;;;;;;;;;;;13.29;43.93;98653.06;4841167;29;19936;-73
2021/03/13 12:18:51;;;;;;;;;;;;;;;13.16;44.28;98645.13;4854484;29;20004;-73
2021/03/13 12:21:19;;;;;;;;;;;;;;;13.17;44.16;98661.88;4853872;29;19932;-75
2021/03/13 12:23:46;;;;;;;;;;;;;;;12.94;44.83;98643.16;4855292;29;19939;-73
2021/03/13 12:26:13;;;;;;;;;;;;;;;12.92;44.93;98642.38;4837643;29;19932;-74
2021/03/13 12:28:40;;;;;;;;;;;;;;;12.92;45.19;98629.13;4853763;29;19928;-74
2021/03/13 12:31:07;;;;;;;;;;;;;;;12.92;45.20;98623.81;4850778;29;19942;-73
2021/03/13 12:33:34;;;;;;;;;;;;;;;12.90;45.20;98620.44;4851131;29;19928;-73
2021/03/13 12:36:03;;;;;;;;;;;;;;;12.68;45.79;98610.50;4857520;29;19928;-73
2021/03/13 12:38:30;;;;;;;;;;;;;;;12.58;46.14;98603.19;4854046;29;19929;-74
2021/03/13 12:41:04;;;;;;;;;;;;;;;12.53;46.40;98593.81;4849649;29;19935;-74
2021/03/13 12:43:31;;;;;;;;;;;;;;;12.41;46.75;98587.56;4858984;29;20040;-73
2021/03/13 12:45:58;;;;;;;;;;;;;;;12.40;46.66;98577.94;4840671;29;19932;-73
2021/03/13 12:48:26;;;;;;;;;;;;;;;12.40;45.83;98572.66;4854259;29;20006;-73
2021/03/13 12:50:53;;;;;;;;;;;;;;;12.42;45.06;98573.38;4850066;29;19932;-73
2021/03/13 12:53:21;;;;;;;;;;;;;;;12.48;43.96;98558.84;4840476;29;19932;-73
2021/03/13 12:55:48;;;;;;;;;;;;;;;12.51;42.73;98561.28;4851403;29;19968;-74
2021/03/13 12:58:15;;;;;;;;;;;;;;;12.53;41.87;98557.56;4859429;29;20000;-73
2021/03/13 13:00:45;;;;;;;;;;;;;;;12.52;41.43;98552.38;4854565;29;19971;-73
2021/03/13 13:03:12;;;;;;;;;;;;;;;12.48;41.13;98545.59;4851328;29;19931;-74
2021/03/13 13:05:39;;;;;;;;;;;;;;;12.45;40.66;98549.31;4853305;29;19964;-73
2021/03/13 13:08:06;;;;;;;;;;;;;;;12.40;40.46;98531.06;4835667;29;19934;-73
2021/03/13 13:10:34;;;;;;;;;;;;;;;12.34;40.95;98539.44;4850902;29;20016;-73
2021/03/13 13:13:02;;;;;;;;;;;;;;;12.30;40.72;98535.31;4844791;29;20389;-73
2021/03/13 13:15:29;;;;;;;;;;;;;;;12.29;40.31;98531.81;4829670;29;19959;-73
2021/03/13 13:17:56;;;;;;;;;;;;;;;12.18;41.30;98536.16;4833049;29;19964;-75
2021/03/13 13:20:23;;;;;;;;;;;;;;;11.94;42.56;98531.56;4843841;29;19933;-74
2021/03/13 13:22:50;;;;;;;;;;;;;;;11.78;44.26;98527.31;4837153;29;20333;-74
2021/03/13 13:25:17;;;;;;;;;;;;;;;11.63;45.41;98536.28;4853367;29;19933;-74
2021/03/13 13:27:45;;;;;;;;;;;;;;;11.55;46.14;98543.91;4838864;29;19947;-74
2021/03/13 13:30:13;;;;;;;;;;;;;;;11.48;47.07;98530.22;4840765;29;19928;-75
2021/03/13 13:32:40;;;;;;;;;;;;;;;11.39;48.32;98534.31;4836526;29;20001;-78
2021/03/13 13:35:08;;;;;;;;;;;;;;;11.35;47.81;98526.69;4834147;29;19937;-74
2021/03/13 13:37:35;;;;;;;;;;;;;;;11.29;48.36;98528.78;4835058;29;19991;-75
2021/03/13 13:40:05;;;;;;;;;;;;;;;11.23;49.34;98531.84;4841825;29;19964;-76